METAR Data
IDs: Format: Raw Decoded Include TAF

Data at: 2200 UTC 10 May 2021

KALS 102152Z AUTO 26022G33KT 10SM CLR 15/M01 A2996 RMK AO2 PK WND 24040/2128 SLP095 T01501011
KALS 102052Z AUTO 23025G37KT 10SM CLR 17/M04 A2996 RMK AO2 PK WND 24041/2006 SLP080 T01671039 53001
KALS 101952Z AUTO 26022G32KT 10SM SCT095 BKN110 17/M08 A2994 RMK AO2 PK WND 23042/1921 SLP076 T01671078
KALS 101852Z AUTO 24024G41KT 10SM CLR 19/M10 A2993 RMK AO2 PK WND 23041/1852 SLP066 T01891100
KALS 101752Z AUTO 23023G33KT 10SM BKN110 17/M11 A2995 RMK AO2 PK WND 24045/1654 SLP076 T01721106 10178 21039 56013
KALS 101652Z AUTO 25019G41KT 8SM BKN100 BKN120 16/M10 A2996 RMK AO2 PK WND 23041/1647 SLP074 T01611100
KALS 101552Z AUTO 20015G22KT 10SM FEW090 15/M04 A2997 RMK AO2 PK WND 18026/1540 SLP078 T01501044
KALS 101452Z AUTO 18014KT 10SM CLR 12/01 A3000 RMK AO2 SLP093 T01170011 58011
KALS 101352Z AUTO 16005KT 10SM CLR 06/M01 A3002 RMK AO2 SLP109 T00561011
KALS 101252Z AUTO 20003KT 10SM CLR M02/M04 A3004 RMK AO2 SLP134 T10221044 $
KALS 101152Z AUTO 00000KT 10SM CLR M03/M06 A3004 RMK AO2 SLP132 T10331056 10050 21033 50007
KALS 101052Z AUTO 27004KT 10SM CLR M01/M04 A3005 RMK AO2 SLP126 T10111039
KALS 100952Z AUTO 11007KT 10SM CLR 02/M02 A3002 RMK AO2 SLP107 T00171017
KALS 100852Z AUTO 11009KT 10SM CLR 04/00 A3001 RMK AO2 SLP095 T00440000 58005
KALS 100752Z AUTO 09007KT 10SM CLR 03/M02 A3002 RMK AO2 SLP097 T00331022
KALS 100652Z AUTO 12009KT 10SM FEW110 04/M02 A3004 RMK AO2 SLP104 T00441017 401941033
KALS 100552Z AUTO 14008KT 10SM CLR 04/M04 A3003 RMK AO2 SLP102 T00441039 10167 20044 53007
KALS 100452Z AUTO 04008KT 10SM FEW110 08/M07 A3001 RMK AO2 SLP090 T00831072
KALS 100352Z AUTO 01009KT 10SM CLR 09/M07 A3002 RMK AO2 SLP096 T00941072
KALS 100252Z AUTO 27008KT 10SM CLR 11/M11 A3000 RMK AO2 SLP101 T01061111 53011
KALS 100152Z AUTO 27014KT 10SM CLR 13/M12 A2999 RMK AO2 PK WND 28028/0056 SLP100 T01281122
KALS 100052Z AUTO 26019G27KT 10SM CLR 14/M13 A2997 RMK AO2 PK WND 26033/2357 SLP101 T01441128
KALS 092352Z AUTO 28019G31KT 230V310 10SM CLR 17/M14 A2996 RMK AO2 PK WND 25032/2259 SLP099 T01671139 10194 20167 51002
KALS 092252Z AUTO 24017G34KT 10SM FEW110 17/M14 A2996 RMK AO2 PK WND 23036/2207 SLP095 T01721139
KALS 092152Z AUTO 25024G35KT 10SM CLR 18/M14 A2996 RMK AO2 PK WND 23040/2120 SLP099 T01781139
KALS 092052Z AUTO 25027G38KT 10SM CLR 18/M15 A2996 RMK AO2 PK WND 26040/2038 SLP093 T01831150 55004
KALS 091952Z AUTO 25025G33KT 10SM CLR 19/M14 A2995 RMK AO2 PK WND 26040/1934 SLP080 T01941144
KALS 091852Z AUTO 25024G37KT 9SM FEW120 19/M15 A2997 RMK AO2 PK WND 24037/1844 SLP088 T01891150
KALS 091752Z AUTO 25020G29KT 10SM FEW110 18/M15 A2997 RMK AO2 PK WND 24042/1720 SLP077 T01831150 10183 21017 56012
KALS 091652Z AUTO 24019G27KT 10SM SCT110 17/M10 A2998 RMK AO2 PK WND 25027/1652 SLP085 T01671100
KALS 091552Z AUTO 17011KT 10SM CLR 14/M04 A3000 RMK AO2 SLP093 T01391039
KALS 091452Z AUTO 12012KT 10SM CLR 09/M01 A3002 RMK AO2 SLP105 T00941011 58002
KALS 091352Z AUTO 17005KT 10SM FEW110 05/M01 A3004 RMK AO2 SLP113 T00501006
KALS 091252Z AUTO 22004KT 10SM BKN100 01/M03 A3003 RMK AO2 SLP124 T00061033
KALS 091152Z AUTO 19004KT 10SM BKN100 M01/M04 A3002 RMK AO2 SLP126 T10111039 10067 21033 51005
KALS 091052Z AUTO 20007KT 10SM BKN100 M01/M06 A3002 RMK AO2 SLP111 T10111056